Time;durP1;ratioP1;P1;durP2;ratioP2;P2;SDS_P1;SDS_P2;PMS_P1;PMS_P2;Temp;Humidity;BMP_temperature;BMP_pressure;BME280_temperature;BME280_humidity;BME280_pressure;Samples;Min_cycle;Max_cycle;Signal;HPM_P1;HPM_P2
2023/07/26 00:01:35;;;;;;;29.60;17.45;;;13.00;99.90;;;;;;5019647;28;20530;-69
2023/07/26 00:04:01;;;;;;;38.95;18.25;;;13.00;99.90;;;;;;5015637;28;20030;-69
2023/07/26 00:06:29;;;;;;;34.53;18.08;;;13.00;99.90;;;;;;5023876;28;20065;-69
2023/07/26 00:08:54;;;;;;;33.08;18.05;;;13.00;99.90;;;;;;5019457;28;20053;-66
2023/07/26 00:11:20;;;;;;;37.60;19.67;;;13.00;99.90;;;;;;5021714;28;20029;-68
2023/07/26 00:13:46;;;;;;;33.00;18.77;;;13.00;99.90;;;;;;5016065;28;20036;-69
2023/07/26 00:16:12;;;;;;;39.10;19.52;;;13.00;99.90;;;;;;5017635;28;20395;-68
2023/07/26 00:18:39;;;;;;;46.83;20.27;;;12.90;99.90;;;;;;5023790;28;20448;-68
2023/07/26 00:21:06;;;;;;;33.35;19.38;;;12.90;99.90;;;;;;5016749;28;20038;-69
2023/07/26 00:23:31;;;;;;;42.67;19.90;;;12.90;99.90;;;;;;5016467;28;20040;-69
2023/07/26 00:25:57;;;;;;;40.67;19.83;;;12.90;99.90;;;;;;5023299;28;20037;-64
2023/07/26 00:28:23;;;;;;;32.50;18.70;;;12.90;99.90;;;;;;5016728;28;20100;-68
2023/07/26 00:30:49;;;;;;;39.33;19.40;;;12.80;99.90;;;;;;5023030;28;20033;-68
2023/07/26 00:33:15;;;;;;;33.90;19.13;;;12.80;99.90;;;;;;5023345;28;20025;-69
2023/07/26 00:35:42;;;;;;;34.80;19.60;;;12.90;99.90;;;;;;5025645;28;20498;-67
2023/07/26 00:38:08;;;;;;;37.08;19.15;;;12.90;99.90;;;;;;5016336;28;20473;-68
2023/07/26 00:40:35;;;;;;;36.63;19.80;;;12.90;99.90;;;;;;5012760;28;20125;-69
2023/07/26 00:43:01;;;;;;;41.30;20.25;;;12.90;99.90;;;;;;5018196;28;20030;-65
2023/07/26 00:45:29;;;;;;;39.85;20.20;;;12.90;99.90;;;;;;5027032;28;20033;-68
2023/07/26 00:47:55;;;;;;;34.75;19.85;;;12.90;99.90;;;;;;5020334;28;20054;-69
2023/07/26 00:50:23;;;;;;;37.53;19.85;;;12.90;99.90;;;;;;5021456;28;20081;-68
2023/07/26 00:52:48;;;;;;;41.80;20.63;;;12.90;99.90;;;;;;5016034;28;20040;-68
2023/07/26 00:55:15;;;;;;;38.10;19.33;;;12.80;99.90;;;;;;5025753;28;20021;-69
2023/07/26 00:57:42;;;;;;;37.83;19.58;;;12.80;99.90;;;;;;5023231;28;20120;-69
2023/07/26 01:00:09;;;;;;;40.53;20.35;;;12.80;99.90;;;;;;5018717;28;20439;-68
2023/07/26 01:02:35;;;;;;;38.80;19.27;;;12.80;99.90;;;;;;5021698;28;20084;-69
2023/07/26 01:05:02;;;;;;;37.38;19.73;;;12.90;99.90;;;;;;5023050;28;20033;-63
2023/07/26 01:07:49;;;;;;;36.75;19.50;;;12.80;99.90;;;;;;5015393;28;20038;-67
2023/07/26 01:10:30;;;;;;;35.70;19.05;;;12.80;99.90;;;;;;5021902;28;20437;-69
2023/07/26 01:13:20;;;;;;;37.85;20.05;;;12.90;99.90;;;;;;5017022;28;20106;-68
2023/07/26 01:15:47;;;;;;;38.90;19.50;;;12.90;99.90;;;;;;5023827;28;20091;-67
2023/07/26 01:18:15;;;;;;;33.35;18.20;;;12.80;99.90;;;;;;5013577;28;20085;-68
2023/07/26 01:20:41;;;;;;;36.40;18.98;;;12.80;99.90;;;;;;5027270;28;20045;-67
2023/07/26 01:23:07;;;;;;;38.78;20.30;;;12.80;99.90;;;;;;5019563;28;20041;-68
2023/07/26 01:25:34;;;;;;;37.38;19.27;;;12.70;99.90;;;;;;5028985;28;20453;-69
2023/07/26 01:27:59;;;;;;;37.33;18.83;;;12.70;99.90;;;;;;5025905;28;20032;-64
2023/07/26 01:30:31;;;;;;;37.42;19.50;;;12.60;99.90;;;;;;5021913;28;20051;-68
2023/07/26 01:33:06;;;;;;;36.38;18.25;;;12.60;99.90;;;;;;5024895;28;20084;-67
2023/07/26 01:35:33;;;;;;;40.88;20.38;;;12.60;99.90;;;;;;5022116;28;20075;-68
2023/07/26 01:37:59;;;;;;;40.00;20.83;;;12.60;99.90;;;;;;5018601;28;20041;-68
2023/07/26 01:40:26;;;;;;;41.63;20.40;;;12.60;99.90;;;;;;5014919;28;20123;-68
2023/07/26 01:42:53;;;;;;;40.78;20.23;;;12.50;99.90;;;;;;5025002;28;20040;-68
2023/07/26 01:45:19;;;;;;;45.63;20.80;;;12.50;99.90;;;;;;5017132;28;20065;-67
2023/07/26 01:47:44;;;;;;;40.63;21.23;;;12.50;99.90;;;;;;4998319;28;20053;-68
2023/07/26 01:50:10;;;;;;;42.92;21.13;;;12.50;99.90;;;;;;5019100;28;20037;-68
2023/07/26 01:52:36;;;;;;;43.20;21.17;;;12.60;99.90;;;;;;5021821;28;20113;-68
2023/07/26 01:55:01;;;;;;;43.55;21.10;;;12.50;99.90;;;;;;5018901;28;20025;-64
2023/07/26 01:57:27;;;;;;;43.60;21.52;;;12.50;99.90;;;;;;5015141;28;20044;-67
2023/07/26 01:59:54;;;;;;;40.30;21.38;;;12.50;99.90;;;;;;5013035;28;20393;-68
2023/07/26 02:02:20;;;;;;;48.75;22.80;;;12.50;99.90;;;;;;5022949;28;20037;-67
2023/07/26 02:04:46;;;;;;;40.40;21.30;;;12.50;99.90;;;;;;5023222;28;20045;-67
2023/07/26 02:07:12;;;;;;;41.25;21.23;;;12.60;99.90;;;;;;5022700;28;20025;-68
2023/07/26 02:09:38;;;;;;;48.45;22.23;;;12.50;99.90;;;;;;5024479;28;20083;-68
2023/07/26 02:12:04;;;;;;;45.83;21.42;;;12.60;99.90;;;;;;5019776;28;20037;-63
2023/07/26 02:14:30;;;;;;;40.75;20.60;;;12.50;99.90;;;;;;5020072;28;20044;-68
2023/07/26 02:16:56;;;;;;;42.13;21.75;;;12.50;99.90;;;;;;5014191;28;20104;-68
2023/07/26 02:19:21;;;;;;;46.38;22.00;;;12.50;99.90;;;;;;5009361;28;20104;-67
2023/07/26 02:21:47;;;;;;;39.25;21.38;;;12.50;99.90;;;;;;5015935;28;20108;-68
2023/07/26 02:24:13;;;;;;;44.80;22.35;;;12.50;99.90;;;;;;5014213;28;20140;-66
2023/07/26 02:26:38;;;;;;;43.40;22.45;;;12.40;99.90;;;;;;5024082;28;20482;-67
2023/07/26 02:29:04;;;;;;;47.20;21.90;;;12.40;99.90;;;;;;5011696;28;20030;-65
2023/07/26 02:31:30;;;;;;;44.33;22.45;;;12.40;99.90;;;;;;5023093;28;20561;-69
2023/07/26 02:33:56;;;;;;;46.53;22.73;;;12.40;99.90;;;;;;5010883;28;20084;-67
2023/07/26 02:36:21;;;;;;;52.05;24.05;;;12.40;99.90;;;;;;5009213;28;20060;-67
2023/07/26 02:38:47;;;;;;;42.15;21.85;;;12.40;99.90;;;;;;5016220;28;20037;-68
2023/07/26 02:41:12;;;;;;;50.92;22.45;;;12.40;99.90;;;;;;5012106;28;20037;-68
2023/07/26 02:43:38;;;;;;;46.50;23.20;;;12.40;99.90;;;;;;5019886;28;20328;-67
2023/07/26 02:46:04;;;;;;;49.05;24.05;;;12.40;99.90;;;;;;5018715;28;20064;-66
2023/07/26 02:48:29;;;;;;;47.83;22.63;;;12.40;99.90;;;;;;5026531;28;20072;-66
2023/07/26 02:50:55;;;;;;;51.88;24.15;;;12.40;99.90;;;;;;5016828;28;20057;-67
2023/07/26 02:53:21;;;;;;;47.67;22.38;;;12.40;99.90;;;;;;5020105;28;20113;-67
2023/07/26 02:55:46;;;;;;;49.25;21.90;;;12.40;99.90;;;;;;5018549;28;20386;-67
2023/07/26 02:58:12;;;;;;;44.63;21.27;;;12.40;99.90;;;;;;5012321;28;20029;-68
2023/07/26 03:00:38;;;;;;;40.30;21.60;;;12.50;99.90;;;;;;5023232;28;20128;-67
2023/07/26 03:03:03;;;;;;;42.03;21.83;;;12.40;99.90;;;;;;5009018;28;20114;-66
2023/07/26 03:05:30;;;;;;;40.67;21.13;;;12.40;99.90;;;;;;5015043;28;20040;-69
2023/07/26 03:07:56;;;;;;;44.15;22.10;;;12.40;99.90;;;;;;5013456;28;20119;-67
2023/07/26 03:10:21;;;;;;;42.75;21.90;;;12.40;99.90;;;;;;5016903;28;20053;-68
2023/07/26 03:12:47;;;;;;;50.50;22.90;;;12.40;99.90;;;;;;5019603;28;20021;-67
2023/07/26 03:15:12;;;;;;;39.78;20.52;;;12.40;99.90;;;;;;5025830;28;20114;-67
2023/07/26 03:17:38;;;;;;;43.55;22.20;;;12.40;99.90;;;;;;5026604;28;20054;-67
2023/07/26 03:20:04;;;;;;;46.05;22.33;;;12.40;99.90;;;;;;5029101;28;20051;-67
2023/07/26 03:22:30;;;;;;;45.13;22.13;;;12.50;99.90;;;;;;5024894;28;20822;-67
2023/07/26 03:24:56;;;;;;;48.60;23.42;;;12.60;99.90;;;;;;5030557;28;20038;-67
2023/07/26 03:27:22;;;;;;;53.00;24.30;;;12.60;99.90;;;;;;5026838;28;20048;-67
2023/07/26 03:29:47;;;;;;;46.05;23.27;;;12.60;99.90;;;;;;5030345;28;20037;-67
2023/07/26 03:32:14;;;;;;;46.00;22.48;;;12.70;99.90;;;;;;5027670;28;20044;-68
2023/07/26 03:34:39;;;;;;;46.10;23.20;;;12.70;99.90;;;;;;5024928;28;20072;-67
2023/07/26 03:37:05;;;;;;;46.45;23.33;;;12.80;99.90;;;;;;5018059;28;20051;-67
2023/07/26 03:39:31;;;;;;;48.00;24.13;;;12.80;99.90;;;;;;5030380;28;20063;-68
2023/07/26 03:41:57;;;;;;;42.78;22.73;;;12.80;99.90;;;;;;5030184;28;20396;-67
2023/07/26 03:44:22;;;;;;;47.75;23.20;;;12.70;99.90;;;;;;5014578;28;20489;-67
2023/07/26 03:46:48;;;;;;;61.45;24.92;;;12.70;99.90;;;;;;5029096;28;20034;-67
2023/07/26 03:49:14;;;;;;;46.03;23.70;;;12.80;99.90;;;;;;5020914;28;20051;-67
2023/07/26 03:51:40;;;;;;;49.38;23.02;;;12.70;99.90;;;;;;5029044;28;20082;-68
2023/07/26 03:54:05;;;;;;;51.80;23.45;;;12.70;99.90;;;;;;5018868;28;20432;-67
2023/07/26 03:56:31;;;;;;;46.53;23.02;;;12.60;99.90;;;;;;5021043;28;20021;-69
2023/07/26 03:58:57;;;;;;;50.85;22.50;;;12.60;99.90;;;;;;5015853;28;20389;-65
2023/07/26 04:01:22;;;;;;;49.92;23.42;;;12.60;99.90;;;;;;5015386;28;20060;-70
2023/07/26 04:03:48;;;;;;;44.85;23.13;;;12.50;99.90;;;;;;5014614;28;20104;-70
2023/07/26 04:06:14;;;;;;;43.65;22.67;;;12.50;99.90;;;;;;5011161;28;20034;-69
2023/07/26 04:08:40;;;;;;;49.08;22.40;;;12.50;99.90;;;;;;5017735;28;20104;-73
2023/07/26 04:11:07;;;;;;;43.90;21.00;;;12.50;99.90;;;;;;5018571;28;20025;-72
2023/07/26 04:13:33;;;;;;;43.85;21.58;;;12.50;99.90;;;;;;5016756;28;20029;-76
2023/07/26 04:16:00;;;;;;;46.08;22.63;;;12.40;99.90;;;;;;5021376;28;20034;-72
2023/07/26 04:18:25;;;;;;;41.95;21.80;;;12.40;99.90;;;;;;5025667;28;20071;-75
2023/07/26 04:20:51;;;;;;;43.38;21.70;;;12.30;99.90;;;;;;5010204;28;20042;-71
2023/07/26 04:23:17;;;;;;;46.83;21.30;;;12.30;99.90;;;;;;5024285;28;20033;-74
2023/07/26 04:25:47;;;;;;;47.45;20.95;;;12.30;99.90;;;;;;5026511;28;20036;-76
2023/07/26 04:28:13;;;;;;;45.42;20.65;;;12.20;99.90;;;;;;5019076;28;20025;-66
2023/07/26 04:30:38;;;;;;;45.72;21.83;;;12.20;99.90;;;;;;5027139;28;20413;-70
2023/07/26 04:33:04;;;;;;;44.58;20.90;;;12.20;99.90;;;;;;5026510;28;20462;-70
2023/07/26 04:35:29;;;;;;;40.45;19.83;;;12.30;99.90;;;;;;5024346;28;20886;-72
2023/07/26 04:37:55;;;;;;;36.58;19.33;;;12.30;99.90;;;;;;5020988;28;20045;-70
2023/07/26 04:40:21;;;;;;;43.67;21.05;;;12.30;99.90;;;;;;5018001;28;20037;-71
2023/07/26 04:42:46;;;;;;;39.10;18.88;;;12.40;99.90;;;;;;5020288;28;20037;-70
2023/07/26 04:45:12;;;;;;;38.65;18.80;;;12.40;99.90;;;;;;5027414;28;20120;-68
2023/07/26 04:47:38;;;;;;;41.05;18.65;;;12.40;99.90;;;;;;5024269;28;20030;-69
2023/07/26 04:50:03;;;;;;;34.05;17.77;;;12.50;99.90;;;;;;5030190;28;20042;-71
2023/07/26 04:52:29;;;;;;;35.72;17.02;;;12.50;99.90;;;;;;5023981;28;20072;-73
2023/07/26 04:54:56;;;;;;;31.38;15.77;;;12.50;99.90;;;;;;5020607;28;20040;-76
2023/07/26 04:57:21;;;;;;;30.92;15.95;;;12.40;99.90;;;;;;5025553;28;20113;-72
2023/07/26 04:59:47;;;;;;;32.75;16.55;;;12.30;99.90;;;;;;5024033;28;20104;-74
2023/07/26 05:02:12;;;;;;;33.33;16.17;;;12.20;99.90;;;;;;5018961;28;20061;-70
2023/07/26 05:04:38;;;;;;;31.05;16.15;;;12.20;99.90;;;;;;5021626;28;20083;-74
2023/07/26 05:07:04;;;;;;;30.38;15.98;;;12.20;99.90;;;;;;5025547;28;20037;-72
2023/07/26 05:09:30;;;;;;;31.42;15.48;;;12.10;99.90;;;;;;5008113;28;20492;-72
2023/07/26 05:11:55;;;;;;;28.27;16.40;;;12.10;99.90;;;;;;5023635;28;20036;-71
2023/07/26 05:14:21;;;;;;;34.20;16.08;;;12.10;99.90;;;;;;5028798;28;20044;-71
2023/07/26 05:16:46;;;;;;;29.70;15.55;;;12.10;99.90;;;;;;5023482;28;20030;-70
2023/07/26 05:19:12;;;;;;;29.58;15.10;;;12.10;99.90;;;;;;5024820;28;20123;-70
2023/07/26 05:21:39;;;;;;;29.30;15.52;;;12.20;99.90;;;;;;5021261;28;20044;-68
2023/07/26 05:24:05;;;;;;;36.15;15.75;;;12.20;99.90;;;;;;5017923;28;20095;-70
2023/07/26 05:26:30;;;;;;;31.00;15.98;;;12.30;99.90;;;;;;5018753;28;20037;-70
2023/07/26 05:28:56;;;;;;;33.65;16.63;;;12.30;99.90;;;;;;5027454;28;20027;-71
2023/07/26 05:31:21;;;;;;;32.25;16.40;;;12.30;99.90;;;;;;5029955;28;20461;-70
2023/07/26 05:34:31;;;;;;;37.78;17.08;;;12.40;99.90;;;;;;5030776;28;20029;-66
2023/07/26 05:36:57;;;;;;;33.95;16.25;;;12.50;99.90;;;;;;5005756;28;20489;-71
2023/07/26 05:39:23;;;;;;;31.50;16.13;;;12.60;99.90;;;;;;5013096;28;20175;-70
2023/07/26 05:41:48;;;;;;;34.17;16.17;;;12.60;99.90;;;;;;5024901;28;20033;-69
2023/07/26 05:44:14;;;;;;;38.53;16.67;;;12.70;99.90;;;;;;5027538;28;20029;-67
2023/07/26 05:46:40;;;;;;;25.83;14.98;;;12.80;99.90;;;;;;5023192;28;20136;-72
2023/07/26 05:49:05;;;;;;;28.58;15.38;;;12.90;99.90;;;;;;5029300;28;20065;-73
2023/07/26 05:51:31;;;;;;;28.73;15.27;;;12.90;99.90;;;;;;5023513;28;20038;-72
2023/07/26 05:53:57;;;;;;;30.75;15.65;;;12.90;99.90;;;;;;5024352;28;20528;-71
2023/07/26 05:56:22;;;;;;;29.83;15.40;;;13.00;99.90;;;;;;5024639;28;20040;-70
2023/07/26 05:58:48;;;;;;;34.38;15.98;;;12.90;99.90;;;;;;5026319;28;20982;-69
2023/07/26 06:01:13;;;;;;;35.22;15.15;;;12.90;99.90;;;;;;5021458;28;20045;-72
2023/07/26 06:03:39;;;;;;;31.80;15.13;;;12.90;99.90;;;;;;5027648;28;20025;-70
2023/07/26 06:06:05;;;;;;;25.83;14.57;;;12.90;99.90;;;;;;5018928;28;20026;-71
2023/07/26 06:08:32;;;;;;;29.88;15.45;;;12.90;99.90;;;;;;5020503;28;20042;-71
2023/07/26 06:10:57;;;;;;;27.95;15.00;;;12.80;99.90;;;;;;5028232;28;20037;-69
2023/07/26 06:13:23;;;;;;;26.30;13.80;;;12.80;99.90;;;;;;5019754;28;20708;-69
2023/07/26 06:15:48;;;;;;;27.13;14.20;;;12.90;99.90;;;;;;5028533;28;20077;-70
2023/07/26 06:18:14;;;;;;;30.60;13.85;;;13.00;99.90;;;;;;5027306;28;20064;-70
2023/07/26 06:20:40;;;;;;;27.48;13.90;;;13.00;99.90;;;;;;5019704;28;20128;-71
2023/07/26 06:23:07;;;;;;;25.65;13.98;;;13.00;99.90;;;;;;5028139;28;20100;-70
2023/07/26 06:25:33;;;;;;;30.20;14.70;;;13.00;99.90;;;;;;5027336;28;20393;-70
2023/07/26 06:27:58;;;;;;;27.40;14.35;;;13.00;99.90;;;;;;5020413;28;20033;-71
2023/07/26 06:30:24;;;;;;;23.80;14.10;;;13.00;99.90;;;;;;5027092;28;20398;-70
2023/07/26 06:32:50;;;;;;;27.85;13.95;;;13.10;99.90;;;;;;5028228;28;20097;-71
2023/07/26 06:35:15;;;;;;;24.73;13.43;;;13.10;99.90;;;;;;5019256;28;20029;-70
2023/07/26 06:37:41;;;;;;;22.77;12.73;;;13.10;99.90;;;;;;5023950;28;20017;-69
2023/07/26 06:40:07;;;;;;;22.73;12.50;;;13.00;99.90;;;;;;5023463;28;20029;-70
2023/07/26 06:42:33;;;;;;;22.05;13.13;;;13.00;99.90;;;;;;5023039;28;20029;-69
2023/07/26 06:44:58;;;;;;;21.10;12.38;;;13.00;99.90;;;;;;5024911;28;20481;-71
2023/07/26 06:47:24;;;;;;;19.33;12.23;;;13.10;99.90;;;;;;5017144;28;20030;-70
2023/07/26 06:49:50;;;;;;;24.52;12.93;;;13.10;99.90;;;;;;5024701;28;20060;-69
2023/07/26 06:52:16;;;;;;;23.88;12.23;;;13.10;99.90;;;;;;5026510;28;20101;-69
2023/07/26 06:54:42;;;;;;;20.50;12.15;;;13.20;99.90;;;;;;5018359;28;20030;-68
2023/07/26 06:57:09;;;;;;;23.25;12.13;;;13.30;99.90;;;;;;5021496;28;20573;-73
2023/07/26 06:59:35;;;;;;;26.83;12.27;;;13.40;99.90;;;;;;5017119;28;20053;-72
2023/07/26 07:02:01;;;;;;;26.40;12.35;;;13.60;99.90;;;;;;5018458;28;20029;-69
2023/07/26 07:04:26;;;;;;;21.52;12.25;;;13.60;99.90;;;;;;5021725;28;20029;-72
2023/07/26 07:06:52;;;;;;;22.02;11.82;;;13.60;99.90;;;;;;5019912;28;20029;-68
2023/07/26 07:09:18;;;;;;;20.90;12.10;;;13.60;99.90;;;;;;5019234;28;20048;-66
2023/07/26 07:11:44;;;;;;;21.75;12.10;;;13.60;99.90;;;;;;5020501;28;20615;-68
2023/07/26 07:14:09;;;;;;;26.20;11.85;;;13.60;99.90;;;;;;5024794;28;20417;-67
2023/07/26 07:16:35;;;;;;;20.45;11.23;;;13.60;99.90;;;;;;5019022;28;20034;-72
2023/07/26 07:19:01;;;;;;;21.25;11.85;;;13.70;99.90;;;;;;5023388;28;20522;-69
2023/07/26 07:21:26;;;;;;;22.27;12.63;;;13.70;99.90;;;;;;5023343;28;20060;-73
2023/07/26 07:23:52;;;;;;;20.85;11.70;;;13.60;99.90;;;;;;5027087;28;20038;-72
2023/07/26 07:26:17;;;;;;;19.70;11.45;;;13.60;99.90;;;;;;5027260;28;20029;-70
2023/07/26 07:28:43;;;;;;;18.73;10.93;;;13.50;99.90;;;;;;5025272;28;20883;-74
2023/07/26 07:31:09;;;;;;;20.35;11.18;;;13.60;99.90;;;;;;5025393;28;20038;-70
2023/07/26 07:33:35;;;;;;;21.98;12.73;;;13.60;99.90;;;;;;5017716;28;20386;-72
2023/07/26 07:36:01;;;;;;;21.20;11.95;;;13.60;99.90;;;;;;5007899;28;20108;-69
2023/07/26 07:38:26;;;;;;;20.27;11.43;;;13.70;99.90;;;;;;5016960;28;20036;-68
2023/07/26 07:40:52;;;;;;;19.13;10.77;;;13.70;99.90;;;;;;5022278;28;20033;-70
2023/07/26 07:43:18;;;;;;;18.33;11.68;;;13.60;99.90;;;;;;5022932;28;20026;-68
2023/07/26 07:45:43;;;;;;;26.15;11.57;;;13.60;99.90;;;;;;5023758;28;20054;-68
2023/07/26 07:48:09;;;;;;;20.00;11.10;;;13.80;99.90;;;;;;5019872;28;20045;-75
2023/07/26 07:50:35;;;;;;;17.77;11.23;;;13.90;99.90;;;;;;5025568;28;20048;-70
2023/07/26 07:53:01;;;;;;;19.48;10.95;;;14.00;99.90;;;;;;5024609;28;20030;-73
2023/07/26 07:55:31;;;;;;;22.05;11.05;;;14.00;99.90;;;;;;5023172;28;20040;-69
2023/07/26 07:58:00;;;;;;;20.13;11.00;;;13.90;99.90;;;;;;5020010;28;20704;-76
2023/07/26 08:00:26;;;;;;;20.10;10.05;;;14.00;99.90;;;;;;5028386;28;20059;-67
2023/07/26 08:02:52;;;;;;;17.77;10.57;;;14.20;99.90;;;;;;5027695;28;21375;-69
2023/07/26 08:05:17;;;;;;;22.10;10.07;;;14.20;99.90;;;;;;5027976;28;20382;-75
2023/07/26 08:07:46;;;;;;;18.10;10.30;;;14.10;99.90;;;;;;5020007;28;20152;-71
2023/07/26 08:10:12;;;;;;;16.58;9.70;;;14.20;99.90;;;;;;5024991;28;20052;-66
2023/07/26 08:12:40;;;;;;;18.85;9.80;;;14.30;99.90;;;;;;5024007;28;20541;-64
2023/07/26 08:15:06;;;;;;;21.90;12.05;;;14.30;99.90;;;;;;5028165;28;20034;-65
2023/07/26 08:17:32;;;;;;;18.30;10.82;;;14.30;99.90;;;;;;5017546;28;20505;-69
2023/07/26 08:19:58;;;;;;;20.20;11.20;;;14.20;99.90;;;;;;5023593;28;20042;-71
2023/07/26 08:22:28;;;;;;;18.83;10.95;;;14.20;99.90;;;;;;5016954;28;20046;-66
2023/07/26 08:24:53;;;;;;;20.88;10.75;;;14.20;99.90;;;;;;5022290;28;20049;-73
2023/07/26 08:27:19;;;;;;;20.67;9.85;;;14.10;99.90;;;;;;5028794;28;20037;-70
2023/07/26 08:29:45;;;;;;;15.35;10.70;;;14.10;99.90;;;;;;5028872;28;20138;-70
2023/07/26 08:32:14;;;;;;;19.40;11.23;;;14.10;99.90;;;;;;5029085;28;20029;-70
2023/07/26 08:34:39;;;;;;;18.70;10.48;;;14.20;99.90;;;;;;5025797;28;20132;-73
2023/07/26 08:37:05;;;;;;;18.17;9.70;;;14.30;99.90;;;;;;5011224;28;20613;-68
2023/07/26 08:39:31;;;;;;;21.00;9.90;;;14.40;99.90;;;;;;5023333;28;20049;-69
2023/07/26 08:41:57;;;;;;;19.08;10.25;;;14.50;99.90;;;;;;5029931;28;20583;-68
2023/07/26 08:44:24;;;;;;;14.32;9.55;;;14.60;99.90;;;;;;5029804;28;20383;-70
2023/07/26 08:46:52;;;;;;;17.50;9.50;;;14.80;99.90;;;;;;5028212;28;20044;-75
2023/07/26 08:49:18;;;;;;;20.77;10.32;;;14.80;99.90;;;;;;5012534;28;20319;-72
2023/07/26 08:51:45;;;;;;;16.42;10.00;;;14.50;99.90;;;;;;5025584;28;20039;-73
2023/07/26 08:54:14;;;;;;;16.90;10.20;;;14.10;99.90;;;;;;5015947;28;20030;-70
2023/07/26 08:56:40;;;;;;;23.13;4.68;;;13.80;99.90;;;;;;5017143;28;20034;-67
2023/07/26 08:59:09;;;;;;;7.78;4.43;;;12.80;99.90;;;;;;5022707;28;20084;-66
2023/07/26 09:01:35;;;;;;;17.35;4.78;;;11.40;99.90;;;;;;5034360;28;20034;-73
2023/07/26 09:04:01;;;;;;;6.45;3.42;;;11.00;99.90;;;;;;5022855;28;20026;-68
2023/07/26 09:06:27;;;;;;;7.35;4.38;;;10.90;99.90;;;;;;5002701;28;20040;-67
2023/07/26 09:08:55;;;;;;;10.02;4.85;;;11.10;99.90;;;;;;5024343;28;20021;-69
2023/07/26 09:11:40;;;;;;;8.98;5.47;;;11.20;99.90;;;;;;5018145;28;20103;-69
2023/07/26 09:14:09;;;;;;;7.65;4.55;;;11.40;99.90;;;;;;5011877;28;20034;-70
2023/07/26 09:16:35;;;;;;;16.85;5.85;;;11.60;99.90;;;;;;5023681;28;20057;-67
2023/07/26 09:19:04;;;;;;;9.55;5.35;;;11.70;99.90;;;;;;5027831;28;20095;-69
2023/07/26 09:21:33;;;;;;;14.80;5.47;;;11.80;99.90;;;;;;5029043;28;20045;-66
2023/07/26 09:24:00;;;;;;;15.45;6.13;;;12.00;99.90;;;;;;5020573;28;20033;-68
2023/07/26 09:26:41;;;;;;;13.23;6.80;;;12.20;99.90;;;;;;5025435;28;20068;-68
2023/07/26 09:29:15;;;;;;;10.60;7.40;;;12.50;99.90;;;;;;5010787;28;20040;-69
2023/07/26 09:31:43;;;;;;;11.50;6.60;;;12.70;99.90;;;;;;5020448;28;20095;-68
2023/07/26 09:34:16;;;;;;;10.77;6.78;;;12.90;99.90;;;;;;5020681;28;20029;-67
2023/07/26 09:36:43;;;;;;;16.40;8.32;;;13.10;99.90;;;;;;5027624;28;20057;-71
2023/07/26 09:39:13;;;;;;;10.20;6.80;;;13.30;99.90;;;;;;5020925;28;20113;-71
2023/07/26 09:41:42;;;;;;;10.98;6.53;;;13.30;99.90;;;;;;5022278;28;20037;-71
2023/07/26 09:44:15;;;;;;;13.52;7.68;;;13.40;99.90;;;;;;5027981;28;20107;-71
2023/07/26 09:46:50;;;;;;;12.18;7.07;;;13.50;99.90;;;;;;5017611;28;20041;-71
2023/07/26 09:49:17;;;;;;;12.95;6.82;;;13.50;99.90;;;;;;5027048;28;20037;-70
2023/07/26 09:51:43;;;;;;;12.07;7.55;;;13.60;99.90;;;;;;5027877;28;20029;-69
2023/07/26 09:54:13;;;;;;;12.00;7.00;;;13.60;99.90;;;;;;5026720;28;20470;-71
2023/07/26 09:56:45;;;;;;;13.35;7.25;;;13.70;99.90;;;;;;5020858;28;20033;-69
2023/07/26 09:59:11;;;;;;;15.13;7.45;;;13.80;99.90;;;;;;5005559;28;20034;-68
2023/07/26 10:01:42;;;;;;;13.63;7.85;;;13.80;99.90;;;;;;5029575;28;20033;-69
2023/07/26 10:04:22;;;;;;;14.50;8.00;;;14.00;99.90;;;;;;5026068;28;20079;-69
2023/07/26 10:06:49;;;;;;;11.93;7.53;;;14.20;99.90;;;;;;5017696;28;20576;-69
2023/07/26 10:09:19;;;;;;;14.05;5.85;;;14.30;99.90;;;;;;5018466;28;20017;-69
2023/07/26 10:11:47;;;;;;;7.43;5.10;;;14.40;99.90;;;;;;5024733;28;20033;-70
2023/07/26 10:14:14;;;;;;;10.30;4.95;;;14.50;99.90;;;;;;5019810;28;20535;-69
2023/07/26 10:16:40;;;;;;;6.75;4.25;;;14.30;99.90;;;;;;5024992;28;20037;-69
2023/07/26 10:19:07;;;;;;;7.03;3.38;;;14.20;99.90;;;;;;5022394;28;20052;-68
2023/07/26 10:21:35;;;;;;;4.82;2.95;;;13.80;99.90;;;;;;5024492;28;20040;-67
2023/07/26 10:24:03;;;;;;;4.95;2.45;;;13.60;99.90;;;;;;5021684;28;20686;-67
2023/07/26 10:26:33;;;;;;;5.82;2.40;;;13.40;99.90;;;;;;5024480;28;20026;-67
2023/07/26 10:28:59;;;;;;;3.73;2.13;;;13.30;99.90;;;;;;5019780;28;20034;-72
2023/07/26 10:31:29;;;;;;;5.32;2.58;;;13.20;99.90;;;;;;5027259;28;20051;-68
2023/07/26 10:33:57;;;;;;;4.67;3.07;;;13.20;99.90;;;;;;5024017;28;20041;-68
2023/07/26 10:36:33;;;;;;;2.13;1.60;;;13.10;99.90;;;;;;5016553;28;20347;-65
2023/07/26 10:39:06;;;;;;;2.83;1.92;;;13.20;99.90;;;;;;5018604;28;20033;-68
2023/07/26 10:41:34;;;;;;;2.08;1.77;;;13.30;99.90;;;;;;5023955;28;20499;-67
2023/07/26 10:44:02;;;;;;;4.82;1.92;;;13.30;99.90;;;;;;5015324;28;20049;-72
2023/07/26 10:46:28;;;;;;;3.85;1.98;;;13.40;99.90;;;;;;5022031;28;20034;-74
2023/07/26 10:48:54;;;;;;;3.15;2.17;;;13.50;99.90;;;;;;5012261;28;20678;-70
2023/07/26 10:51:32;;;;;;;3.05;2.10;;;13.70;99.90;;;;;;5022645;28;20040;-70
2023/07/26 10:53:59;;;;;;;3.13;2.10;;;13.90;99.90;;;;;;5004480;28;20466;-72
2023/07/26 10:56:35;;;;;;;2.92;2.08;;;13.90;99.90;;;;;;5017354;28;20033;-72
2023/07/26 10:59:04;;;;;;;3.78;2.00;;;14.00;99.90;;;;;;5016324;28;20030;-71
2023/07/26 11:01:36;;;;;;;3.65;2.05;;;13.90;99.90;;;;;;5026499;28;20140;-71
2023/07/26 11:04:08;;;;;;;4.47;2.40;;;13.90;99.90;;;;;;5024932;28;20038;-68
2023/07/26 11:06:57;;;;;;;3.50;2.13;;;13.90;99.90;;;;;;5009468;28;20040;-66
2023/07/26 11:09:28;;;;;;;3.00;2.05;;;13.80;99.90;;;;;;5021839;28;20033;-70
2023/07/26 11:11:53;;;;;;;4.35;2.22;;;13.70;99.90;;;;;;5023220;28;20604;-68
2023/07/26 11:14:19;;;;;;;2.55;1.77;;;13.70;99.90;;;;;;5026313;28;20030;-69
2023/07/26 11:16:48;;;;;;;4.65;2.50;;;13.60;99.90;;;;;;5015487;28;20039;-70
2023/07/26 11:19:14;;;;;;;3.83;2.22;;;13.60;99.90;;;;;;5021024;28;20050;-69
2023/07/26 11:21:42;;;;;;;3.65;2.35;;;13.80;99.90;;;;;;5008070;28;20037;-70
2023/07/26 11:24:11;;;;;;;4.07;2.38;;;13.90;99.90;;;;;;5019177;28;20033;-70
2023/07/26 11:26:44;;;;;;;4.50;2.80;;;14.20;99.90;;;;;;5014914;28;20077;-64
2023/07/26 11:29:11;;;;;;;2.75;2.08;;;14.50;99.90;;;;;;5009753;28;20030;-75
2023/07/26 11:31:40;;;;;;;5.60;2.53;;;14.80;99.90;;;;;;5026516;28;20068;-68
2023/07/26 11:34:17;;;;;;;5.22;2.15;;;15.10;99.90;;;;;;5017873;28;20529;-73
2023/07/26 11:36:43;;;;;;;3.70;2.60;;;15.20;99.90;;;;;;5018257;28;20460;-73
2023/07/26 11:39:24;;;;;;;4.32;2.80;;;15.10;99.90;;;;;;5019355;28;20041;-69
2023/07/26 11:41:53;;;;;;;3.40;2.45;;;15.10;99.90;;;;;;5024138;28;20095;-74
2023/07/26 11:44:21;;;;;;;2.92;2.03;;;14.90;99.90;;;;;;5018320;28;20104;-72
2023/07/26 11:46:49;;;;;;;3.67;2.63;;;15.00;99.90;;;;;;5028244;28;20501;-73
2023/07/26 11:49:23;;;;;;;3.13;2.33;;;15.30;99.90;;;;;;5024987;28;20481;-74
2023/07/26 11:51:50;;;;;;;4.72;2.78;;;15.40;99.90;;;;;;5027257;28;20034;-70
2023/07/26 11:54:16;;;;;;;3.97;2.55;;;15.30;99.90;;;;;;5024197;28;20025;-72
2023/07/26 11:56:43;;;;;;;7.93;3.00;;;15.30;99.90;;;;;;5014571;28;20030;-76
2023/07/26 11:59:11;;;;;;;3.88;2.80;;;15.20;99.90;;;;;;5024583;28;20030;-72
2023/07/26 12:01:38;;;;;;;5.50;3.35;;;15.10;99.90;;;;;;5031149;28;20048;-67
2023/07/26 12:04:15;;;;;;;3.95;2.80;;;14.90;99.90;;;;;;5026785;28;20038;-68
2023/07/26 12:06:44;;;;;;;3.92;2.92;;;14.90;99.90;;;;;;5027649;28;20030;-74
2023/07/26 12:09:13;;;;;;;8.38;3.22;;;15.00;99.90;;;;;;5004652;28;20415;-74
2023/07/26 12:11:51;;;;;;;5.40;3.05;;;14.90;99.90;;;;;;5014069;28;20056;-66
2023/07/26 12:14:19;;;;;;;5.55;3.13;;;15.00;99.90;;;;;;5026530;28;20421;-64
2023/07/26 12:16:53;;;;;;;5.72;3.65;;;14.90;99.90;;;;;;5021161;28;20087;-68
2023/07/26 12:19:24;;;;;;;7.20;4.20;;;14.80;99.90;;;;;;5019194;28;20041;-73
2023/07/26 12:21:50;;;;;;;8.75;4.10;;;14.80;99.90;;;;;;5001942;28;20059;-73
2023/07/26 12:24:16;;;;;;;7.80;4.45;;;14.70;99.90;;;;;;4999727;28;20044;-69
2023/07/26 12:26:47;;;;;;;8.32;4.57;;;14.70;99.90;;;;;;5017952;28;20030;-70
2023/07/26 12:29:14;;;;;;;7.53;4.60;;;14.70;99.90;;;;;;5024666;28;20436;-71
2023/07/26 12:31:39;;;;;;;6.57;4.20;;;14.60;99.90;;;;;;5038877;28;20113;-67
2023/07/26 12:34:07;;;;;;;5.97;3.22;;;14.50;99.90;;;;;;5028785;28;20116;-72